Time;durP1;ratioP1;P1;durP2;ratioP2;P2;SDS_P1;SDS_P2;PMS_P1;PMS_P2;Temp;Humidity;BMP_temperature;BMP_pressure;BME280_temperature;BME280_humidity;BME280_pressure;Samples;Min_cycle;Max_cycle;Signal;HPM_P1;HPM_P2
2022/09/28 00:01:17;;;;;;;2.07;1.87;;;11.60;99.90;10.90;98553;;;;583054;246;24106;-82
2022/09/28 00:03:48;;;;;;;1.90;1.80;;;11.50;99.90;10.90;98542;;;;582691;244;24127;-83
2022/09/28 00:06:16;;;;;;;2.00;1.90;;;11.50;99.90;10.90;98539;;;;582774;246;24139;-83
2022/09/28 00:08:45;;;;;;;2.03;1.93;;;11.50;99.90;10.90;98539;;;;582634;244;24126;-82
2022/09/28 00:11:09;;;;;;;1.93;1.83;;;11.50;99.90;10.90;98538;;;;582247;246;24099;-83
2022/09/28 00:13:40;;;;;;;1.77;1.67;;;11.40;99.90;10.80;98530;;;;582426;247;24096;-82
2022/09/28 00:16:04;;;;;;;1.97;1.87;;;11.40;99.90;10.80;98535;;;;582704;246;24123;-84
2022/09/28 00:18:36;;;;;;;2.50;2.23;;;11.40;99.90;10.80;98538;;;;582463;243;24138;-84
2022/09/28 00:21:01;;;;;;;2.40;2.20;;;11.30;99.90;10.70;98528;;;;582611;245;24104;-84
2022/09/28 00:23:29;;;;;;;2.73;2.40;;;11.30;99.90;10.70;98526;;;;582303;245;24091;-83
2022/09/28 00:25:56;;;;;;;2.97;2.20;;;11.30;99.90;10.70;98531;;;;582709;247;24178;-83
2022/09/28 00:28:24;;;;;;;2.23;2.13;;;11.30;99.90;10.70;98527;;;;581886;245;24126;-83
2022/09/28 00:30:55;;;;;;;2.23;2.07;;;11.20;99.90;10.70;98524;;;;581950;247;24146;-83
2022/09/28 00:33:25;;;;;;;2.83;2.47;;;11.20;99.90;10.60;98523;;;;582439;247;24135;-83
2022/09/28 00:35:57;;;;;;;2.27;2.07;;;11.20;99.90;10.60;98501;;;;582078;247;24130;-82
2022/09/28 00:38:30;;;;;;;2.33;2.13;;;11.20;99.90;10.50;98515;;;;582308;243;24088;-83
2022/09/28 00:40:58;;;;;;;2.67;2.47;;;11.10;99.90;10.50;98515;;;;582153;246;24095;-83
2022/09/28 00:43:26;;;;;;;2.73;2.53;;;11.10;99.90;10.50;98507;;;;582534;247;24144;-83
2022/09/28 00:46:02;;;;;;;4.67;2.40;;;11.10;99.90;10.50;98515;;;;582683;244;24111;-82
2022/09/28 00:48:30;;;;;;;2.77;2.47;;;11.10;99.90;10.50;98512;;;;581328;247;24076;-83
2022/09/28 00:51:02;;;;;;;2.60;2.40;;;11.10;99.90;10.50;98501;;;;582330;244;24095;-83
2022/09/28 00:53:26;;;;;;;2.77;2.53;;;11.10;99.90;10.50;98509;;;;582447;246;24068;-82
2022/09/28 00:55:57;;;;;;;2.80;2.60;;;11.10;99.90;10.50;98505;;;;582497;247;24133;-84
2022/09/28 00:58:26;;;;;;;4.57;2.60;;;11.10;99.90;10.50;98505;;;;582283;245;24091;-83
2022/09/28 01:00:52;;;;;;;3.37;2.57;;;11.10;99.90;10.50;98507;;;;582779;243;24116;-83
2022/09/28 01:03:24;;;;;;;3.90;3.33;;;11.10;99.90;10.50;98507;;;;578560;245;35261;-84
2022/09/28 01:05:48;;;;;;;5.50;3.03;;;11.10;99.90;10.40;98500;;;;583298;246;26280;-84
2022/09/28 01:08:16;;;;;;;3.73;3.00;;;11.10;99.90;10.40;98502;;;;583275;246;24168;-84
2022/09/28 01:10:44;;;;;;;3.40;2.67;;;11.10;99.90;10.40;98501;;;;582982;244;24115;-84
2022/09/28 01:13:15;;;;;;;2.97;2.67;;;11.00;99.90;10.40;98509;;;;583030;246;24159;-83
2022/09/28 01:15:40;;;;;;;2.73;2.53;;;11.10;99.90;10.40;98507;;;;582665;246;24099;-84
2022/09/28 01:18:16;;;;;;;3.43;3.13;;;11.10;99.90;10.50;98503;;;;579332;246;24136;-83
2022/09/28 01:21:01;;;;;;;4.37;3.10;;;11.10;99.90;10.40;98502;;;;582215;245;24103;-84
2022/09/28 01:23:32;;;;;;;3.50;2.97;;;11.10;99.90;10.40;98499;;;;578836;244;24100;-83
2022/09/28 01:26:39;;;;;;;3.30;2.90;;;11.10;99.90;10.40;98502;;;;582092;243;24198;-83
2022/09/28 01:29:16;;;;;;;3.43;3.13;;;11.00;99.90;10.40;98495;;;;583150;247;24102;-84
2022/09/28 01:31:44;;;;;;;2.93;2.73;;;11.00;99.90;10.30;98495;;;;583135;245;24079;-82
2022/09/28 01:34:16;;;;;;;3.90;2.83;;;10.90;99.90;10.30;98499;;;;583056;245;24128;-84
2022/09/28 01:36:49;;;;;;;3.23;2.97;;;10.90;99.90;10.30;98498;;;;580733;243;24114;-82
2022/09/28 01:39:26;;;;;;;2.80;2.60;;;10.80;99.90;10.20;98497;;;;583072;247;24107;-83
2022/09/28 01:41:54;;;;;;;3.47;3.00;;;10.80;99.90;10.20;98493;;;;581994;245;24141;-83
2022/09/28 01:44:25;;;;;;;4.13;2.70;;;10.80;99.90;10.20;98490;;;;582837;247;24103;-84
2022/09/28 01:47:02;;;;;;;3.10;2.80;;;10.80;99.90;10.20;98486;;;;582888;247;24161;-84
2022/09/28 01:49:30;;;;;;;3.00;2.50;;;10.70;99.90;10.10;98483;;;;582441;247;24142;-84
2022/09/28 01:52:14;;;;;;;2.40;2.30;;;10.70;99.90;10.10;98490;;;;582582;247;24218;-85
2022/09/28 01:54:51;;;;;;;2.97;2.78;;;10.70;99.90;10.10;98479;;;;577465;245;35292;-85
2022/09/28 01:57:24;;;;;;;2.20;1.97;;;10.70;99.90;10.10;98481;;;;582841;243;24120;-85
2022/09/28 02:00:01;;;;;;;2.47;2.27;;;10.60;99.90;10.00;98476;;;;581579;243;24140;-84
2022/09/28 02:02:33;;;;;;;2.40;2.00;;;10.50;99.90;10.00;98481;;;;582216;247;24107;-84
2022/09/28 02:05:28;;;;;;;3.23;1.60;;;10.50;99.90;9.90;98483;;;;580122;244;24142;-84
2022/09/28 02:08:24;;;;;;;2.17;2.07;;;10.50;99.90;9.90;98485;;;;582531;245;24171;-85
2022/09/28 02:10:51;;;;;;;2.70;2.00;;;10.50;99.90;9.90;98483;;;;582428;245;24104;-83
2022/09/28 02:13:22;;;;;;;2.60;2.40;;;10.40;99.90;9.90;98484;;;;576317;245;35231;-85
2022/09/28 02:16:05;;;;;;;3.80;2.50;;;10.50;99.90;9.80;98485;;;;583964;245;24109;-83
2022/09/28 02:18:34;;;;;;;2.10;1.90;;;10.40;99.90;9.80;98472;;;;583705;244;24098;-84
2022/09/28 02:21:29;;;;;;;2.83;2.47;;;10.40;99.90;9.80;98477;;;;583483;246;24108;-85
2022/09/28 02:24:07;;;;;;;2.47;1.53;;;10.40;99.90;9.70;98468;;;;583467;244;24095;-83
2022/09/28 02:26:35;;;;;;;3.43;2.27;;;10.30;99.90;9.70;98465;;;;583010;246;24104;-85
2022/09/28 02:29:06;;;;;;;3.70;2.40;;;10.30;99.90;9.70;98471;;;;582945;246;24116;-84
2022/09/28 02:31:36;;;;;;;2.37;2.03;;;10.30;99.90;9.70;98460;;;;583170;246;24115;-85
2022/09/28 02:34:03;;;;;;;2.70;2.23;;;10.30;99.90;9.70;98461;;;;582548;246;24153;-85
2022/09/28 02:36:35;;;;;;;4.60;2.73;;;10.30;99.90;9.70;98462;;;;582657;247;24116;-84
2022/09/28 02:39:03;;;;;;;6.10;2.63;;;10.30;99.90;9.70;98461;;;;582803;243;24123;-86
2022/09/28 02:42:24;;;;;;;4.70;2.93;;;10.30;99.90;9.70;98463;;;;582421;247;24114;-86
2022/09/28 02:45:27;;;;;;;4.37;2.60;;;10.40;99.90;9.70;98459;;;;583120;247;24108;-86
2022/09/28 02:48:18;;;;;;;4.27;2.90;;;10.30;99.90;9.70;98463;;;;583269;247;24138;-85
2022/09/28 02:50:55;;;;;;;3.07;2.57;;;10.30;99.90;9.70;98451;;;;582768;245;24264;-86
2022/09/28 02:53:56;;;;;;;4.80;3.17;;;10.30;99.90;9.70;98445;;;;582601;247;24095;-85
2022/09/28 02:56:48;;;;;;;3.53;3.23;;;10.30;99.90;9.70;98448;;;;561743;251;24160;-84
2022/09/28 02:59:18;;;;;;;3.83;3.50;;;10.30;99.90;9.80;98450;;;;589321;238;24099;-84
2022/09/28 03:02:14;;;;;;;6.47;3.97;;;10.30;99.90;9.80;98456;;;;583000;246;24149;-84
2022/09/28 03:05:18;;;;;;;4.13;3.20;;;10.40;99.90;9.80;98453;;;;583671;247;24115;-85
2022/09/28 03:08:07;;;;;;;3.23;2.93;;;10.40;99.90;9.80;98461;;;;581259;245;24141;-85
2022/09/28 03:10:50;;;;;;;7.67;4.27;;;10.30;99.90;9.70;98464;;;;572337;247;24108;-85
2022/09/28 03:13:18;;;;;;;4.43;3.77;;;10.30;99.90;9.70;98462;;;;572590;248;24119;-85
2022/09/28 03:15:45;;;;;;;8.10;4.20;;;10.30;99.90;9.70;98462;;;;580566;245;24181;-85
2022/09/28 03:18:13;;;;;;;8.93;4.43;;;10.30;99.90;9.70;98464;;;;580912;248;24119;-84
2022/09/28 03:20:40;;;;;;;5.10;4.47;;;10.30;99.90;9.70;98459;;;;580949;248;24101;-85
2022/09/28 03:23:08;;;;;;;5.60;4.30;;;10.30;99.90;9.70;98459;;;;580860;244;25150;-85
2022/09/28 03:25:36;;;;;;;5.77;4.10;;;10.30;99.90;9.70;98459;;;;580681;248;24135;-85
2022/09/28 03:28:05;;;;;;;5.83;4.33;;;10.30;99.90;9.70;98459;;;;582644;245;24131;-85
2022/09/28 03:30:36;;;;;;;8.35;6.72;;;10.30;99.90;9.70;98452;;;;577125;247;35283;-85
2022/09/28 03:33:07;;;;;;;6.00;4.53;;;10.30;99.90;9.70;98452;;;;582088;247;24096;-84
2022/09/28 03:35:36;;;;;;;7.23;4.97;;;10.40;99.90;9.80;98453;;;;581225;247;24142;-84
2022/09/28 03:38:00;;;;;;;10.37;5.23;;;10.30;99.90;9.80;98445;;;;581072;244;24103;-85
2022/09/28 03:40:29;;;;;;;9.33;5.90;;;10.40;99.90;9.80;98451;;;;581246;247;24108;-85
2022/09/28 03:42:58;;;;;;;7.80;6.10;;;10.40;99.90;9.80;98441;;;;581203;247;24456;-84
2022/09/28 03:45:25;;;;;;;10.33;5.93;;;10.40;99.90;9.80;98447;;;;580908;247;24101;-83
2022/09/28 03:47:53;;;;;;;8.80;5.40;;;10.40;99.90;9.80;98441;;;;580674;244;24107;-84
2022/09/28 03:50:30;;;;;;;9.23;5.50;;;10.40;99.90;9.80;98442;;;;580871;247;24126;-84
2022/09/28 03:52:54;;;;;;;10.90;6.03;;;10.40;99.90;9.80;98438;;;;580237;247;25190;-83
2022/09/28 03:55:26;;;;;;;8.23;6.53;;;10.40;99.90;9.80;98438;;;;580874;247;24123;-85
2022/09/28 03:57:57;;;;;;;8.67;6.00;;;10.40;99.90;9.80;98431;;;;580464;247;24133;-85
2022/09/28 04:00:29;;;;;;;9.30;6.47;;;10.40;99.90;9.80;98434;;;;580882;247;24116;-85
2022/09/28 04:02:57;;;;;;;10.47;6.73;;;10.40;99.90;9.80;98436;;;;580365;247;24093;-85
2022/09/28 04:05:25;;;;;;;9.07;6.33;;;10.40;99.90;9.80;98428;;;;580475;248;24132;-85
2022/09/28 04:07:57;;;;;;;9.70;6.90;;;10.40;99.90;9.80;98428;;;;580988;248;24096;-85
2022/09/28 04:10:21;;;;;;;9.07;6.63;;;10.40;99.90;9.80;98423;;;;580300;244;24104;-85
2022/09/28 04:12:50;;;;;;;13.07;7.47;;;10.40;99.90;9.80;98415;;;;581576;248;24093;-85
2022/09/28 04:15:21;;;;;;;10.73;6.87;;;10.40;99.90;9.80;98416;;;;580899;241;24092;-84
2022/09/28 04:17:47;;;;;;;13.23;7.93;;;10.40;99.90;9.80;98420;;;;580740;244;24068;-85
2022/09/28 04:20:15;;;;;;;12.27;7.37;;;10.40;99.90;9.80;98421;;;;580650;244;24118;-85
2022/09/28 04:22:43;;;;;;;13.50;7.73;;;10.40;99.90;9.80;98411;;;;580593;244;24144;-85
2022/09/28 04:25:10;;;;;;;10.37;7.33;;;10.40;99.90;9.80;98410;;;;580859;244;24110;-85
2022/09/28 04:30:28;;;;;;;13.47;7.40;;;10.40;99.90;9.80;98410;;;;581566;241;24136;-84
2022/09/28 04:32:56;;;;;;;11.93;6.73;;;10.40;99.90;9.80;98401;;;;580945;248;24128;-84
2022/09/28 04:35:24;;;;;;;13.70;7.80;;;10.40;99.90;9.80;98396;;;;580965;245;24105;-84
2022/09/28 04:37:49;;;;;;;11.47;6.53;;;10.30;99.90;9.80;98399;;;;581324;240;24144;-84
2022/09/28 04:40:17;;;;;;;12.83;7.33;;;10.30;99.90;9.80;98391;;;;582025;247;24130;-85
2022/09/28 04:42:45;;;;;;;9.27;7.23;;;10.40;99.90;9.80;98393;;;;582070;247;24120;-85
2022/09/28 04:45:14;;;;;;;11.50;6.80;;;10.30;99.90;9.80;98391;;;;581132;240;24127;-83
2022/09/28 04:47:42;;;;;;;11.00;6.63;;;10.40;99.90;9.80;98396;;;;582073;239;24180;-82
2022/09/28 04:50:13;;;;;;;9.63;6.70;;;10.40;99.90;9.80;98395;;;;572312;247;24137;-84
2022/09/28 04:52:38;;;;;;;11.57;7.47;;;10.30;99.90;9.80;98405;;;;571920;247;24200;-84
2022/09/28 04:55:09;;;;;;;9.03;6.47;;;10.30;99.90;9.80;98402;;;;572295;247;24078;-85
2022/09/28 04:57:36;;;;;;;11.53;6.90;;;10.40;99.90;9.80;98405;;;;571491;247;24035;-85
2022/09/28 05:00:09;;;;;;;11.60;6.67;;;10.30;99.90;9.80;98408;;;;572235;247;24138;-85
2022/09/28 05:02:38;;;;;;;9.13;6.03;;;10.30;99.90;9.80;98406;;;;579397;245;24115;-82
2022/09/28 05:05:01;;;;;;;10.87;6.67;;;10.30;99.90;9.80;98402;;;;576977;247;24083;-84
2022/09/28 05:07:30;;;;;;;10.67;7.33;;;10.30;99.90;9.80;98398;;;;571171;247;24104;-85
2022/09/28 05:10:00;;;;;;;9.63;6.13;;;10.30;99.90;9.80;98399;;;;570246;247;24220;-83
2022/09/28 05:12:25;;;;;;;10.27;6.70;;;10.30;99.90;9.80;98399;;;;578795;247;24095;-84
2022/09/28 05:14:58;;;;;;;10.93;6.87;;;10.40;99.90;9.80;98408;;;;570576;248;24108;-84
2022/09/28 05:17:23;;;;;;;10.00;6.80;;;10.40;99.90;9.80;98395;;;;578111;245;24093;-84
2022/09/28 05:19:51;;;;;;;11.93;6.57;;;10.30;99.90;9.80;98411;;;;570963;248;24083;-85
2022/09/28 05:22:20;;;;;;;12.10;7.07;;;10.40;99.90;9.80;98411;;;;570650;248;24140;-85
2022/09/28 05:24:48;;;;;;;9.80;6.47;;;10.30;99.90;9.80;98404;;;;570443;248;24136;-86
2022/09/28 05:27:16;;;;;;;11.87;6.50;;;10.40;99.90;9.80;98404;;;;570476;248;24200;-85
2022/09/28 05:29:44;;;;;;;10.50;7.13;;;10.40;99.90;9.80;98406;;;;570437;248;24096;-85
2022/09/28 05:32:15;;;;;;;11.10;7.07;;;10.40;99.90;9.80;98404;;;;570022;248;24072;-86
2022/09/28 05:34:40;;;;;;;13.97;6.33;;;10.40;99.90;9.90;98402;;;;575164;247;24118;-86
2022/09/28 05:37:08;;;;;;;11.50;7.33;;;10.40;99.90;9.90;98403;;;;570077;248;24143;-85
2022/09/28 05:39:36;;;;;;;7.37;6.07;;;10.50;99.90;9.90;98404;;;;569964;248;24133;-84
2022/09/28 05:42:07;;;;;;;14.20;6.27;;;10.50;99.90;10.00;98402;;;;570832;248;24107;-84
2022/09/28 05:44:35;;;;;;;10.37;7.40;;;10.50;99.90;10.00;98398;;;;571299;248;24143;-85
2022/09/28 05:47:01;;;;;;;8.87;6.70;;;10.50;99.90;10.00;98402;;;;568798;248;24100;-83
2022/09/28 05:49:31;;;;;;;13.93;8.60;;;10.50;99.90;10.00;98394;;;;571700;244;24203;-84
2022/09/28 05:51:57;;;;;;;13.27;9.57;;;10.60;99.90;10.10;98392;;;;572931;244;24110;-85
2022/09/28 05:54:29;;;;;;;12.77;7.47;;;10.60;99.90;10.10;98392;;;;572336;239;24100;-83
2022/09/28 05:56:57;;;;;;;11.50;6.83;;;10.60;99.90;10.10;98393;;;;572082;244;24126;-85
2022/09/28 05:59:24;;;;;;;8.07;6.40;;;10.60;99.90;10.10;98395;;;;580691;247;24105;-86
2022/09/28 06:01:52;;;;;;;9.90;6.67;;;10.60;99.90;10.10;98389;;;;571889;247;24146;-85
2022/09/28 06:04:17;;;;;;;10.80;5.83;;;10.60;99.90;10.10;98395;;;;572048;244;24114;-81
2022/09/28 06:06:48;;;;;;;8.40;5.70;;;10.70;99.90;10.10;98398;;;;572366;244;24098;-82
2022/09/28 06:09:13;;;;;;;5.90;5.20;;;10.70;99.90;10.10;98392;;;;571909;241;24111;-82
2022/09/28 06:11:41;;;;;;;6.57;5.47;;;10.60;99.90;10.10;98401;;;;572207;247;24179;-81
2022/09/28 06:14:08;;;;;;;8.43;5.80;;;10.70;99.90;10.20;98396;;;;571818;241;24109;-85
2022/09/28 06:16:39;;;;;;;8.53;5.40;;;10.70;99.90;10.20;98395;;;;572178;246;24173;-85
2022/09/28 06:19:13;;;;;;;6.50;4.63;;;10.70;99.90;10.20;98395;;;;571907;241;24102;-84
2022/09/28 06:21:39;;;;;;;5.73;4.77;;;10.70;99.90;10.20;98402;;;;571156;244;24106;-86
2022/09/28 06:24:07;;;;;;;5.03;4.47;;;10.70;99.90;10.30;98403;;;;571345;244;24099;-87
2022/09/28 06:26:35;;;;;;;6.73;4.73;;;10.80;99.90;10.30;98386;;;;570594;248;24085;-86
2022/09/28 06:29:06;;;;;;;5.20;4.67;;;10.80;99.90;10.30;98386;;;;570679;248;24095;-88
2022/09/28 06:31:34;;;;;;;6.23;5.17;;;10.80;99.90;10.30;98388;;;;579151;248;24163;-89
2022/09/28 06:34:00;;;;;;;6.50;4.53;;;10.80;99.90;10.30;98385;;;;570645;248;24135;-88
2022/09/28 06:36:34;;;;;;;7.40;6.00;;;10.80;99.90;10.30;98384;;;;570870;248;24143;-88
2022/09/28 06:38:59;;;;;;;6.53;5.57;;;10.80;99.90;10.30;98387;;;;570665;248;24156;-85
2022/09/28 06:41:28;;;;;;;6.43;5.70;;;10.80;99.90;10.30;98376;;;;570729;248;24087;-88
2022/09/28 06:43:56;;;;;;;8.30;5.80;;;10.80;99.90;10.30;98369;;;;570768;248;24124;-87
2022/09/28 06:46:24;;;;;;;8.67;4.87;;;10.80;99.90;10.30;98389;;;;570618;248;24080;-86
2022/09/28 06:48:54;;;;;;;9.40;5.87;;;10.80;99.90;10.30;98386;;;;570715;248;24125;-87
2022/09/28 06:51:19;;;;;;;7.57;5.73;;;10.80;99.90;10.40;98383;;;;570591;248;24139;-89
2022/09/28 06:53:47;;;;;;;6.80;5.47;;;10.90;99.90;10.40;98380;;;;570673;248;24129;-86
2022/09/28 06:56:18;;;;;;;10.87;5.83;;;10.90;99.90;10.40;98384;;;;570618;248;24118;-87
2022/09/28 06:58:43;;;;;;;10.60;5.83;;;10.90;99.90;10.40;98386;;;;570550;248;24110;-88
2022/09/28 07:01:11;;;;;;;8.83;6.07;;;10.90;99.90;10.40;98380;;;;571350;247;24130;-89
2022/09/28 07:03:39;;;;;;;8.70;5.93;;;10.90;99.90;10.50;98393;;;;571864;247;24219;-86
2022/09/28 07:06:07;;;;;;;8.90;6.60;;;10.90;99.90;10.50;98385;;;;571462;247;24086;-86
2022/09/28 07:08:36;;;;;;;8.03;6.70;;;11.00;99.90;10.50;98387;;;;571356;247;24089;-88
2022/09/28 07:11:09;;;;;;;9.13;6.57;;;10.90;99.90;10.50;98383;;;;571063;247;24154;-87
2022/09/28 07:13:37;;;;;;;21.90;17.00;;;11.00;99.90;10.50;98392;;;;570626;247;24119;-88
2022/09/28 07:16:02;;;;;;;10.83;6.33;;;11.00;99.90;10.60;98390;;;;579516;247;24092;-89
2022/09/28 07:18:34;;;;;;;11.93;7.00;;;11.00;99.90;10.60;98396;;;;571124;247;24133;-87
2022/09/28 07:21:01;;;;;;;8.87;6.17;;;11.10;99.90;10.60;98393;;;;570358;247;24128;-89
2022/09/28 07:23:30;;;;;;;11.63;6.80;;;11.10;99.90;10.60;98394;;;;570595;247;24103;-88
2022/09/28 07:25:58;;;;;;;9.03;6.60;;;11.10;99.90;10.70;98396;;;;570651;247;24159;-87
2022/09/28 07:28:25;;;;;;;10.10;6.60;;;11.20;99.90;10.70;98388;;;;570282;247;24088;-87
2022/09/28 07:30:50;;;;;;;8.13;6.23;;;11.20;99.90;10.70;98393;;;;570444;247;24127;-88
2022/09/28 07:33:18;;;;;;;9.87;7.00;;;11.20;99.90;10.70;98396;;;;570682;247;24200;-88
2022/09/28 07:35:54;;;;;;;6.73;6.03;;;11.20;99.90;10.70;98393;;;;570630;247;24125;-88
2022/09/28 07:38:25;;;;;;;9.70;6.67;;;11.20;99.90;10.70;98398;;;;570439;248;24213;-86
2022/09/28 07:43:37;;;;;;;8.87;6.53;;;11.20;99.90;10.70;98393;;;;570848;248;24086;-88
2022/09/28 07:46:06;;;;;;;10.93;7.60;;;11.20;99.90;10.70;98397;;;;570855;248;24106;-88
2022/09/28 07:48:35;;;;;;;15.27;7.63;;;11.20;99.90;10.70;98396;;;;570411;248;24198;-88
2022/09/28 07:50:58;;;;;;;12.27;6.80;;;11.20;99.90;10.70;98395;;;;570069;248;24121;-88
2022/09/28 07:53:30;;;;;;;10.23;6.93;;;11.20;99.90;10.80;98403;;;;570223;248;24077;-87
2022/09/28 07:56:04;;;;;;;9.63;6.97;;;11.20;99.90;10.80;98395;;;;575650;248;24159;-89
2022/09/28 07:58:31;;;;;;;7.77;6.03;;;11.30;99.90;10.90;98399;;;;570696;248;24110;-88
2022/09/28 08:00:59;;;;;;;8.07;6.93;;;11.40;99.90;11.00;98404;;;;571001;248;24363;-87
2022/09/28 08:03:25;;;;;;;7.73;6.30;;;11.40;99.90;11.00;98401;;;;570912;248;24123;-89
2022/09/28 08:05:58;;;;;;;7.23;6.00;;;11.50;99.90;11.00;98403;;;;570502;248;24076;-89
2022/09/28 08:08:30;;;;;;;7.97;6.30;;;11.50;99.90;11.10;98400;;;;570024;248;24105;-89
2022/09/28 08:10:55;;;;;;;9.23;6.50;;;11.60;99.90;11.20;98403;;;;570035;248;24109;-89
2022/09/28 08:13:26;;;;;;;11.53;6.80;;;11.70;99.90;11.20;98404;;;;571572;247;24096;-86
2022/09/28 08:15:51;;;;;;;12.77;6.87;;;11.70;99.90;11.20;98395;;;;571657;247;24125;-87
2022/09/28 08:18:22;;;;;;;7.60;6.50;;;11.70;99.90;11.30;98396;;;;571591;247;24084;-87
2022/09/28 08:23:35;;;;;;;8.70;6.83;;;11.60;99.90;11.10;98400;;;;571526;247;24109;-86
2022/09/28 08:26:00;;;;;;;7.97;6.73;;;11.60;99.90;11.10;98405;;;;571336;247;24088;-82
2022/09/28 08:28:31;;;;;;;7.80;6.57;;;11.50;99.90;11.10;98401;;;;572007;247;24068;-81
2022/09/28 08:30:57;;;;;;;7.80;6.27;;;11.50;99.90;11.10;98398;;;;571604;247;24112;-87
2022/09/28 08:33:24;;;;;;;9.20;7.03;;;11.50;99.90;11.10;98399;;;;572019;247;24079;-83
2022/09/28 08:36:02;;;;;;;9.43;7.00;;;11.60;99.90;11.20;98398;;;;572321;247;24114;-83
2022/09/28 08:38:29;;;;;;;9.97;7.70;;;11.60;99.90;11.20;98392;;;;572105;247;24117;-85
2022/09/28 08:41:03;;;;;;;8.77;7.43;;;11.60;99.90;11.20;98399;;;;572090;247;24094;-80
2022/09/28 08:43:49;;;;;;;12.20;7.30;;;11.70;99.90;11.20;98399;;;;571720;247;24121;-81
2022/09/28 08:46:17;;;;;;;9.43;7.60;;;11.70;99.90;11.30;98413;;;;580162;245;24098;-78
2022/09/28 08:48:53;;;;;;;6.80;6.07;;;11.70;99.90;11.30;98413;;;;571749;248;24133;-82
2022/09/28 08:51:39;;;;;;;11.40;8.43;;;11.80;99.90;11.40;98417;;;;577922;245;24062;-81
2022/09/28 08:54:28;;;;;;;10.20;7.83;;;11.90;99.90;11.50;98416;;;;569113;248;24129;-84
2022/09/28 08:57:11;;;;;;;10.83;7.97;;;12.00;99.90;11.60;98417;;;;571110;248;24057;-83
2022/09/28 08:59:50;;;;;;;9.77;7.40;;;12.10;99.90;11.70;98417;;;;571995;248;24142;-81
2022/09/28 09:02:24;;;;;;;11.63;8.83;;;12.20;99.90;11.70;98416;;;;571712;248;24062;-84
2022/09/28 09:04:54;;;;;;;10.20;7.67;;;12.10;99.90;11.70;98414;;;;572133;247;24129;-82
2022/09/28 09:07:45;;;;;;;9.90;7.33;;;12.10;99.90;11.70;98413;;;;571825;248;24068;-81
2022/09/28 09:10:32;;;;;;;10.83;7.97;;;12.20;99.90;11.70;98421;;;;571637;247;24146;-81
2022/09/28 09:13:11;;;;;;;9.95;8.95;;;12.10;99.90;11.70;98422;;;;567052;248;46183;-83
2022/09/28 09:15:56;;;;;;;8.90;6.83;;;12.20;99.90;11.70;98423;;;;578592;245;24105;-85
2022/09/28 09:18:37;;;;;;;7.57;6.77;;;12.20;99.90;11.80;98421;;;;567536;248;24080;-85
2022/09/28 09:21:32;;;;;;;8.27;6.83;;;12.30;99.90;11.80;98432;;;;570417;248;24132;-83
2022/09/28 09:24:25;;;;;;;7.07;6.00;;;12.30;99.90;11.70;98422;;;;568821;246;24092;-85
2022/09/28 09:27:17;;;;;;;10.47;6.80;;;12.20;99.90;11.70;98417;;;;571319;247;24182;-84
2022/09/28 09:30:16;;;;;;;7.37;6.67;;;12.10;99.90;11.60;98419;;;;568387;247;24110;-87
2022/09/28 09:33:08;;;;;;;8.37;6.30;;;12.00;99.90;11.60;98425;;;;571460;247;24104;-85
2022/09/28 09:35:38;;;;;;;9.33;7.17;;;12.00;99.90;11.60;98423;;;;571133;247;24079;-85
2022/09/28 09:38:26;;;;;;;8.80;6.80;;;12.10;99.90;11.60;98422;;;;571072;247;24102;-86
2022/09/28 09:41:19;;;;;;;9.13;6.87;;;12.10;99.90;11.60;98417;;;;565980;249;24100;-86
2022/09/28 09:44:12;;;;;;;8.40;6.43;;;12.10;99.90;11.70;98422;;;;561756;251;24119;-86
2022/09/28 09:47:01;;;;;;;8.50;6.93;;;12.30;99.90;11.90;98427;;;;582408;246;24102;-86
2022/09/28 09:49:26;;;;;;;9.63;7.33;;;12.40;99.90;11.90;98428;;;;567038;249;24089;-84
2022/09/28 09:52:23;;;;;;;10.83;7.57;;;12.40;99.90;12.00;98420;;;;566823;249;24099;-86
2022/09/28 09:55:23;;;;;;;8.27;6.93;;;12.50;99.90;12.10;98427;;;;570429;246;24138;-85
2022/09/28 09:58:08;;;;;;;10.37;6.87;;;12.70;99.90;12.30;98427;;;;567974;251;24109;-84
2022/09/28 10:00:37;;;;;;;7.77;6.97;;;12.80;99.90;12.20;98425;;;;561497;252;24140;-85
2022/09/28 10:03:05;;;;;;;8.67;6.67;;;12.80;99.90;12.30;98419;;;;561116;252;24162;-84
2022/09/28 10:05:39;;;;;;;5.83;5.23;;;12.90;99.90;12.30;98422;;;;560939;252;24146;-84
2022/09/28 10:08:06;;;;;;;6.33;5.63;;;12.90;99.90;12.40;98428;;;;563102;251;24158;-85
2022/09/28 10:10:36;;;;;;;6.00;5.50;;;13.00;99.90;12.50;98417;;;;563286;251;24143;-85
2022/09/28 10:13:04;;;;;;;5.33;4.83;;;13.10;99.90;12.60;98425;;;;560915;252;24134;-82
2022/09/28 10:15:37;;;;;;;6.37;5.03;;;13.20;99.90;12.70;98430;;;;561927;251;24115;-82
2022/09/28 10:18:05;;;;;;;6.03;5.40;;;13.30;99.90;12.80;98418;;;;573687;246;24106;-83
2022/09/28 10:20:38;;;;;;;5.83;5.23;;;13.40;99.90;12.90;98425;;;;584382;244;24240;-82
2022/09/28 10:23:06;;;;;;;7.23;5.50;;;13.50;99.90;13.10;98426;;;;570913;248;24084;-85
2022/09/28 10:25:34;;;;;;;5.60;5.13;;;13.60;99.90;13.30;98426;;;;559686;251;24190;-83
2022/09/28 10:28:05;;;;;;;7.00;5.00;;;13.80;99.90;13.40;98437;;;;567511;250;24132;-81
2022/09/28 10:30:30;;;;;;;6.10;5.50;;;13.90;99.90;13.40;98436;;;;567411;248;24086;-82
2022/09/28 10:33:00;;;;;;;5.60;5.10;;;14.00;99.90;13.40;98437;;;;567562;250;24101;-85
2022/09/28 10:35:28;;;;;;;5.03;4.63;;;14.00;99.90;13.40;98441;;;;566550;248;24243;-83
2022/09/28 10:38:14;;;;;;;6.37;5.07;;;14.00;99.90;13.60;98433;;;;567933;249;24105;-85
2022/09/28 10:40:50;;;;;;;6.60;5.47;;;14.10;99.90;13.70;98439;;;;571618;249;24141;-86
2022/09/28 10:43:29;;;;;;;5.67;5.00;;;14.20;99.90;13.70;98440;;;;575973;249;24111;-88
2022/09/28 10:46:12;;;;;;;5.83;5.23;;;14.30;99.90;13.80;98450;;;;580436;246;24103;-86
2022/09/28 10:48:56;;;;;;;6.27;5.40;;;14.40;99.90;13.80;98446;;;;571507;251;24116;-86
2022/09/28 10:51:48;;;;;;;6.47;5.97;;;14.40;99.90;13.80;98449;;;;556593;251;35468;-85
2022/09/28 10:54:21;;;;;;;7.47;5.07;;;14.40;99.90;13.70;98449;;;;572671;246;24113;-85
2022/09/28 10:56:53;;;;;;;4.87;4.23;;;14.40;99.90;13.70;98442;;;;566777;249;24102;-84
2022/09/28 10:59:33;;;;;;;5.10;4.70;;;14.30;99.90;13.80;98442;;;;567036;249;24151;-86
2022/09/28 11:02:04;;;;;;;7.93;4.90;;;14.40;99.90;13.90;98438;;;;567449;249;24129;-85
2022/09/28 11:04:38;;;;;;;5.17;4.67;;;14.50;99.90;13.90;98448;;;;566326;248;24092;-86
2022/09/28 11:07:12;;;;;;;4.40;4.10;;;14.50;99.90;14.00;98445;;;;573534;246;24152;-85
2022/09/28 11:09:40;;;;;;;4.13;3.83;;;14.60;99.90;14.00;98447;;;;569131;251;24117;-84
2022/09/28 11:12:09;;;;;;;4.80;4.40;;;14.60;99.90;13.90;98447;;;;567064;250;24088;-86
2022/09/28 11:14:42;;;;;;;4.73;4.33;;;14.50;99.90;13.90;98451;;;;574807;248;24119;-82
2022/09/28 11:17:43;;;;;;;5.25;4.85;;;14.50;99.90;14.00;98452;;;;561327;250;46223;-85
2022/09/28 11:20:24;;;;;;;5.53;4.13;;;14.50;99.90;14.10;98447;;;;573103;246;24141;-84
2022/09/28 11:22:58;;;;;;;6.13;3.80;;;14.70;99.90;14.20;98453;;;;562677;251;24100;-86
2022/09/28 11:25:26;;;;;;;3.53;3.23;;;14.80;99.90;14.30;98450;;;;561736;252;24143;-87
2022/09/28 11:27:58;;;;;;;3.40;3.20;;;14.90;99.90;14.40;98457;;;;561403;252;24139;-85
2022/09/28 11:30:49;;;;;;;2.87;2.67;;;14.80;99.90;14.40;98456;;;;569310;252;24164;-85
2022/09/28 11:33:20;;;;;;;3.47;3.17;;;15.00;99.90;14.50;98458;;;;563299;251;24178;-83
2022/09/28 11:36:17;;;;;;;6.17;3.33;;;15.10;99.90;14.70;98449;;;;562957;251;24081;-84
2022/09/28 11:39:13;;;;;;;3.37;3.07;;;15.20;99.90;14.90;98450;;;;571415;248;24143;-84
2022/09/28 11:42:01;;;;;;;3.70;3.40;;;15.40;99.90;15.20;98453;;;;570867;248;24157;-84
2022/09/28 11:44:38;;;;;;;3.70;3.40;;;15.70;99.90;15.50;98443;;;;579032;248;24092;-85
2022/09/28 11:47:26;;;;;;;3.93;2.80;;;16.00;99.90;15.60;98448;;;;579692;246;24179;-86
2022/09/28 11:50:00;;;;;;;3.30;3.10;;;16.20;99.90;15.80;98447;;;;572369;247;24111;-85
2022/09/28 11:52:30;;;;;;;3.30;2.93;;;16.40;99.90;15.90;98436;;;;571374;247;24084;-84